Time;durP1;ratioP1;P1;durP2;ratioP2;P2;SDS_P1;SDS_P2;PMS_P1;PMS_P2;Temp;Humidity;BMP_temperature;BMP_pressure;BME280_temperature;BME280_humidity;BME280_pressure;Samples;Min_cycle;Max_cycle;Signal;HPM_P1;HPM_P2
2024/04/08 00:00:52;;;;;;;3.78;2.58;;;25.50;53.30;;;;;;6144923;28;80780;-70
2024/04/08 00:03:52;;;;;;;5.10;2.88;;;25.40;53.20;;;;;;6151876;28;80540;-69
2024/04/08 00:06:54;;;;;;;3.70;2.30;;;25.40;53.30;;;;;;6138212;28;80817;-69
2024/04/08 00:09:54;;;;;;;2.83;2.40;;;25.40;53.30;;;;;;6138176;28;80767;-64
2024/04/08 00:12:55;;;;;;;3.25;2.50;;;25.40;53.50;;;;;;6126338;28;82538;-64
2024/04/08 00:15:55;;;;;;;3.38;2.65;;;25.40;53.50;;;;;;6127786;28;80908;-63
2024/04/08 00:18:56;;;;;;;7.15;2.47;;;25.40;53.40;;;;;;6126829;28;80857;-61
2024/04/08 00:21:56;;;;;;;6.82;2.80;;;25.40;53.50;;;;;;6140403;28;81830;-61
2024/04/08 00:24:57;;;;;;;5.05;2.60;;;25.40;54.20;;;;;;6126543;28;80817;-62
2024/04/08 00:27:57;;;;;;;2.90;2.00;;;25.40;53.50;;;;;;6126810;28;82055;-59
2024/04/08 00:30:58;;;;;;;3.47;2.30;;;25.40;53.30;;;;;;6136757;28;80419;-59
2024/04/08 00:33:58;;;;;;;3.38;2.30;;;25.40;53.20;;;;;;6128490;28;86427;-61
2024/04/08 00:36:59;;;;;;;2.80;2.17;;;25.40;53.30;;;;;;6140071;28;80256;-61
2024/04/08 00:40:00;;;;;;;3.75;2.45;;;25.40;53.10;;;;;;6125038;28;80581;-59
2024/04/08 00:43:01;;;;;;;6.25;2.60;;;25.40;53.00;;;;;;6129029;28;80502;-59
2024/04/08 00:46:02;;;;;;;5.00;2.22;;;25.40;53.20;;;;;;6146525;28;83780;-63
2024/04/08 00:49:03;;;;;;;2.78;2.20;;;25.40;53.40;;;;;;6140005;28;80392;-64
2024/04/08 00:52:03;;;;;;;4.93;2.45;;;25.40;53.40;;;;;;6135010;28;83289;-60
2024/04/08 00:55:04;;;;;;;5.72;2.25;;;25.40;53.50;;;;;;6126619;28;80241;-61
2024/04/08 00:58:04;;;;;;;2.67;2.10;;;25.40;53.70;;;;;;6127743;28;80363;-62
2024/04/08 01:01:05;;;;;;;3.92;2.33;;;25.40;53.90;;;;;;6136886;28;80603;-61
2024/04/08 01:04:06;;;;;;;6.68;2.55;;;25.40;53.60;;;;;;6127861;28;80648;-60
2024/04/08 01:07:06;;;;;;;2.92;2.20;;;25.40;53.90;;;;;;6130765;28;80190;-60
2024/04/08 01:10:07;;;;;;;5.95;2.30;;;25.40;54.10;;;;;;6135577;28;80913;-60
2024/04/08 01:13:07;;;;;;;3.80;2.42;;;25.40;54.40;;;;;;6130822;28;80264;-60
2024/04/08 01:16:08;;;;;;;3.58;2.38;;;25.40;54.70;;;;;;6129749;28;80507;-59
2024/04/08 01:19:08;;;;;;;3.10;2.28;;;25.40;54.30;;;;;;6143670;28;88440;-59
2024/04/08 01:22:10;;;;;;;3.35;2.17;;;25.40;53.90;;;;;;6143236;28;80511;-62
2024/04/08 01:25:11;;;;;;;5.03;2.40;;;25.40;53.70;;;;;;6143091;28;80212;-61
2024/04/08 01:28:11;;;;;;;5.32;2.38;;;25.40;53.60;;;;;;6131209;28;80927;-60
2024/04/08 01:31:14;;;;;;;6.57;2.92;;;25.40;53.60;;;;;;6138197;28;82271;-60
2024/04/08 01:34:15;;;;;;;4.90;3.00;;;25.40;53.60;;;;;;6143073;28;80929;-61
2024/04/08 01:37:15;;;;;;;4.60;2.20;;;25.30;53.60;;;;;;6130301;28;81128;-60
2024/04/08 01:40:16;;;;;;;5.03;2.95;;;25.40;53.60;;;;;;6130274;28;80046;-61
2024/04/08 01:43:17;;;;;;;5.40;2.78;;;25.30;53.60;;;;;;6129629;28;80423;-61
2024/04/08 01:46:17;;;;;;;4.90;2.80;;;25.30;53.70;;;;;;6135085;28;81315;-61
2024/04/08 01:49:18;;;;;;;4.72;2.28;;;25.30;53.60;;;;;;6138358;28;80745;-62
2024/04/08 01:52:18;;;;;;;4.38;2.47;;;25.30;53.60;;;;;;6131153;28;80723;-62
2024/04/08 01:55:19;;;;;;;3.78;2.65;;;25.30;53.70;;;;;;6130187;28;81927;-62
2024/04/08 01:58:23;;;;;;;3.20;2.40;;;25.30;53.80;;;;;;6149061;28;83318;-61
2024/04/08 02:01:23;;;;;;;6.65;3.50;;;25.30;53.90;;;;;;6132982;28;80824;-60
2024/04/08 02:04:24;;;;;;;7.93;2.50;;;25.30;53.70;;;;;;6129225;28;80439;-61
2024/04/08 02:07:24;;;;;;;3.92;2.60;;;25.30;53.80;;;;;;6129451;28;81231;-61
2024/04/08 02:10:25;;;;;;;4.10;2.53;;;25.30;53.70;;;;;;6141163;28;81733;-61
2024/04/08 02:13:26;;;;;;;5.80;3.03;;;25.30;53.80;;;;;;6142972;28;80495;-62
2024/04/08 02:16:26;;;;;;;3.78;2.83;;;25.30;53.80;;;;;;6128450;28;80603;-61
2024/04/08 02:19:27;;;;;;;5.43;3.42;;;25.30;53.90;;;;;;6129154;28;80927;-61
2024/04/08 02:22:27;;;;;;;4.28;2.47;;;25.30;53.60;;;;;;6143677;28;80327;-60
2024/04/08 02:25:28;;;;;;;5.82;3.03;;;25.30;53.60;;;;;;6138943;28;81271;-61
2024/04/08 02:28:28;;;;;;;7.15;3.22;;;25.30;53.60;;;;;;6140565;28;80660;-61
2024/04/08 02:31:29;;;;;;;4.43;2.38;;;25.30;53.60;;;;;;6134190;28;80618;-60
2024/04/08 02:34:29;;;;;;;4.90;2.95;;;25.30;53.60;;;;;;6131602;28;81017;-60
2024/04/08 02:37:30;;;;;;;4.32;2.55;;;25.30;53.60;;;;;;6128830;28;81016;-61
2024/04/08 02:40:32;;;;;;;5.05;2.92;;;25.30;53.60;;;;;;6134794;28;80525;-62
2024/04/08 02:43:32;;;;;;;4.57;2.45;;;25.30;53.50;;;;;;6138082;28;80374;-61
2024/04/08 02:46:33;;;;;;;5.35;2.92;;;25.30;53.40;;;;;;6129429;28;81611;-60
2024/04/08 02:49:34;;;;;;;4.30;3.03;;;25.30;53.30;;;;;;6128375;28;81218;-61
2024/04/08 02:52:37;;;;;;;3.33;2.22;;;25.20;53.20;;;;;;6129919;28;80760;-60
2024/04/08 02:55:37;;;;;;;11.15;2.15;;;25.20;53.00;;;;;;6139623;28;80551;-60
2024/04/08 02:58:39;;;;;;;4.82;2.60;;;25.20;53.00;;;;;;6128965;28;81376;-61
2024/04/08 03:01:39;;;;;;;4.60;2.50;;;25.30;53.00;;;;;;6130231;28;80326;-61
2024/04/08 03:04:40;;;;;;;4.00;2.22;;;25.20;52.80;;;;;;6131875;28;80552;-62
2024/04/08 03:07:40;;;;;;;4.07;2.30;;;25.20;52.90;;;;;;6128380;28;80953;-62
2024/04/08 03:10:41;;;;;;;5.03;2.15;;;25.20;52.90;;;;;;6138918;28;86054;-61
2024/04/08 03:13:41;;;;;;;3.75;2.08;;;25.20;53.00;;;;;;6128276;28;80913;-66
2024/04/08 03:16:44;;;;;;;6.22;2.50;;;25.20;53.00;;;;;;6135498;28;80890;-68
2024/04/08 03:19:44;;;;;;;2.75;2.20;;;25.20;52.90;;;;;;6132715;28;80375;-65
2024/04/08 03:22:45;;;;;;;6.45;2.72;;;25.20;53.00;;;;;;6144261;28;80707;-66
2024/04/08 03:25:45;;;;;;;10.43;2.75;;;25.20;53.00;;;;;;6141876;28;80384;-64
2024/04/08 03:28:46;;;;;;;6.93;2.47;;;25.20;52.60;;;;;;6147125;28;81426;-63
2024/04/08 03:31:46;;;;;;;2.85;1.67;;;25.20;52.50;;;;;;6138463;28;80487;-62
2024/04/08 03:34:47;;;;;;;5.63;2.20;;;25.20;52.40;;;;;;6127820;28;80740;-63
2024/04/08 03:37:47;;;;;;;2.78;1.90;;;25.20;52.40;;;;;;6127451;28;80100;-64
2024/04/08 03:40:48;;;;;;;5.18;2.45;;;25.20;52.30;;;;;;6132851;28;80321;-60
2024/04/08 03:43:51;;;;;;;5.88;2.30;;;25.20;52.20;;;;;;6131221;28;81514;-61
2024/04/08 03:46:52;;;;;;;5.63;2.20;;;25.20;52.10;;;;;;6131243;28;80921;-60
2024/04/08 03:49:53;;;;;;;3.22;2.00;;;25.10;52.00;;;;;;6153646;28;80531;-65
2024/04/08 03:52:54;;;;;;;2.33;1.90;;;25.20;52.00;;;;;;6136013;28;80327;-66
2024/04/08 03:55:54;;;;;;;5.15;2.15;;;25.10;52.00;;;;;;6128391;28;81207;-66
2024/04/08 03:58:58;;;;;;;7.38;2.53;;;25.20;52.00;;;;;;6128464;28;81600;-66
2024/04/08 04:01:59;;;;;;;2.20;1.80;;;25.20;52.00;;;;;;6128606;28;81172;-65
2024/04/08 04:04:59;;;;;;;3.30;2.53;;;25.10;51.90;;;;;;6144490;28;80850;-63
2024/04/08 04:08:00;;;;;;;3.25;1.80;;;25.10;51.90;;;;;;6129676;28;80987;-59
2024/04/08 04:11:00;;;;;;;3.22;2.40;;;25.10;52.00;;;;;;6127646;28;80793;-62
2024/04/08 04:14:01;;;;;;;11.52;3.42;;;25.10;52.20;;;;;;6138267;28;81012;-61
2024/04/08 04:17:01;;;;;;;4.50;2.80;;;25.10;52.50;;;;;;6143908;28;81888;-65
2024/04/08 04:20:03;;;;;;;6.75;2.90;;;25.20;53.10;;;;;;6131077;28;80610;-63
2024/04/08 04:23:05;;;;;;;9.07;2.95;;;25.20;53.30;;;;;;6127830;28;81085;-59
2024/04/08 04:26:07;;;;;;;6.95;2.60;;;25.20;53.60;;;;;;6134797;28;81090;-61
2024/04/08 04:29:07;;;;;;;5.10;2.83;;;25.20;53.60;;;;;;6130403;28;80862;-51
2024/04/08 04:32:08;;;;;;;6.03;3.58;;;25.30;53.60;;;;;;6130836;28;80701;-61
2024/04/08 04:35:08;;;;;;;10.15;3.67;;;25.30;53.90;;;;;;6127741;28;80431;-56
2024/04/08 04:38:09;;;;;;;10.45;3.95;;;25.20;53.80;;;;;;6125861;28;81751;-59
2024/04/08 04:41:10;;;;;;;18.25;3.70;;;25.20;53.90;;;;;;6124846;28;81184;-60
2024/04/08 04:44:11;;;;;;;15.10;4.63;;;25.30;53.90;;;;;;6128477;28;81247;-61
2024/04/08 04:47:11;;;;;;;22.27;4.07;;;25.30;53.70;;;;;;6128595;28;81202;-61
2024/04/08 04:50:12;;;;;;;17.88;4.35;;;25.30;53.50;;;;;;6127495;28;81089;-61
2024/04/08 04:53:12;;;;;;;9.75;4.15;;;25.30;53.40;;;;;;6140815;28;81059;-61
2024/04/08 04:56:13;;;;;;;10.27;4.00;;;25.30;53.30;;;;;;6127679;28;82131;-60
2024/04/08 04:59:13;;;;;;;11.23;3.90;;;25.30;53.40;;;;;;6127638;28;80867;-61
2024/04/08 05:02:14;;;;;;;11.75;3.85;;;25.30;53.20;;;;;;6128192;28;80958;-61
2024/04/08 05:05:14;;;;;;;15.90;4.32;;;25.30;53.00;;;;;;6130316;28;81989;-60
2024/04/08 05:08:15;;;;;;;12.25;4.70;;;25.20;53.10;;;;;;6122196;28;81810;-61
2024/04/08 05:11:15;;;;;;;10.40;4.07;;;25.20;53.10;;;;;;6134769;28;80803;-61
2024/04/08 05:14:16;;;;;;;17.75;4.82;;;25.20;53.00;;;;;;6127684;28;81626;-61
2024/04/08 05:17:16;;;;;;;11.32;4.57;;;25.20;53.00;;;;;;6130906;28;81803;-61
2024/04/08 05:20:17;;;;;;;9.15;4.05;;;25.20;53.00;;;;;;6129599;28;83085;-59
2024/04/08 05:23:17;;;;;;;10.80;4.40;;;25.20;52.90;;;;;;6129064;28;81161;-60
2024/04/08 05:26:18;;;;;;;11.82;4.78;;;25.30;52.90;;;;;;6129439;28;82682;-60
2024/04/08 05:29:18;;;;;;;14.02;5.22;;;25.30;52.90;;;;;;6130014;28;81949;-60
2024/04/08 05:32:19;;;;;;;11.13;4.93;;;25.30;52.80;;;;;;6140161;28;83622;-60
2024/04/08 05:35:19;;;;;;;12.43;4.85;;;25.30;52.90;;;;;;6130052;28;80356;-60
2024/04/08 05:38:20;;;;;;;11.70;5.25;;;25.30;52.90;;;;;;6130816;28;80942;-60
2024/04/08 05:41:20;;;;;;;9.43;4.72;;;25.30;52.90;;;;;;6129939;28;80899;-59
2024/04/08 05:44:21;;;;;;;13.40;4.70;;;25.30;53.00;;;;;;6128934;28;81897;-60
2024/04/08 05:47:22;;;;;;;10.02;4.45;;;25.30;52.90;;;;;;6129420;28;81448;-59
2024/04/08 05:50:23;;;;;;;9.20;4.88;;;25.30;52.90;;;;;;6127994;28;81216;-60
2024/04/08 05:53:23;;;;;;;13.13;5.47;;;25.30;52.90;;;;;;6128690;28;80635;-60
2024/04/08 05:56:24;;;;;;;9.18;5.05;;;25.30;52.90;;;;;;6129110;28;80420;-63
2024/04/08 05:59:26;;;;;;;11.13;4.95;;;25.30;53.00;;;;;;6128600;28;81433;-63
2024/04/08 06:02:27;;;;;;;10.50;5.32;;;25.30;52.90;;;;;;6128967;28;80751;-63
2024/04/08 06:05:27;;;;;;;9.85;4.85;;;25.30;52.90;;;;;;6129395;28;80310;-63
2024/04/08 06:08:28;;;;;;;14.30;5.38;;;25.30;52.90;;;;;;6128823;28;80652;-63
2024/04/08 06:11:28;;;;;;;8.75;4.65;;;25.30;52.80;;;;;;6128286;28;81741;-63
2024/04/08 06:14:29;;;;;;;13.45;4.88;;;25.40;52.90;;;;;;6135652;28;81781;-63
2024/04/08 06:17:29;;;;;;;14.27;4.57;;;25.40;52.90;;;;;;6133076;28;83490;-64
2024/04/08 06:20:30;;;;;;;10.60;4.65;;;25.40;52.80;;;;;;6138500;28;81809;-63
2024/04/08 06:23:31;;;;;;;15.05;5.72;;;25.40;53.00;;;;;;6137972;28;81055;-63
2024/04/08 06:26:31;;;;;;;12.98;4.63;;;25.40;52.90;;;;;;6131776;28;80949;-64
2024/04/08 06:29:32;;;;;;;8.32;4.43;;;25.50;53.30;;;;;;6128414;28;80793;-65
2024/04/08 06:32:33;;;;;;;10.77;4.32;;;25.50;53.10;;;;;;6135186;28;80688;-63
2024/04/08 06:35:34;;;;;;;12.00;4.88;;;25.50;53.20;;;;;;6130027;28;80976;-62
2024/04/08 06:38:34;;;;;;;10.35;5.65;;;25.50;53.10;;;;;;6128827;28;80777;-65
2024/04/08 06:41:36;;;;;;;15.70;4.97;;;25.50;53.30;;;;;;6135460;28;80993;-64
2024/04/08 06:44:36;;;;;;;11.93;6.03;;;25.50;53.30;;;;;;6130397;28;80461;-64
2024/04/08 06:47:37;;;;;;;11.00;4.70;;;25.50;53.30;;;;;;6122609;28;82340;-64
2024/04/08 06:50:37;;;;;;;8.02;4.32;;;25.50;53.20;;;;;;6142445;28;83247;-64
2024/04/08 06:53:38;;;;;;;8.63;4.63;;;25.60;53.30;;;;;;6136194;28;81133;-58
2024/04/08 06:56:38;;;;;;;8.07;4.43;;;25.50;53.50;;;;;;6129689;28;86097;-59
2024/04/08 06:59:39;;;;;;;10.07;4.90;;;25.60;53.60;;;;;;6128101;28;80495;-59
2024/04/08 07:02:40;;;;;;;9.80;4.55;;;25.60;53.50;;;;;;6132593;28;81507;-60
2024/04/08 07:05:41;;;;;;;7.68;4.55;;;25.70;53.80;;;;;;6140577;28;81949;-56
2024/04/08 07:08:41;;;;;;;10.18;4.68;;;25.70;53.90;;;;;;6136621;28;80373;-58
2024/04/08 07:11:42;;;;;;;11.32;5.32;;;25.70;53.90;;;;;;6134026;28;80936;-60
2024/04/08 07:14:43;;;;;;;10.93;4.78;;;25.70;54.00;;;;;;6136260;28;80508;-59
2024/04/08 07:17:43;;;;;;;8.38;4.45;;;25.70;54.20;;;;;;6145134;28;85303;-58
2024/04/08 07:20:44;;;;;;;10.55;4.45;;;25.70;54.20;;;;;;6152365;28;80948;-59
2024/04/08 07:23:44;;;;;;;7.35;4.30;;;25.80;54.30;;;;;;6151406;28;80577;-59
2024/04/08 07:26:45;;;;;;;9.57;5.60;;;25.70;54.20;;;;;;6151936;28;81489;-60
2024/04/08 07:29:46;;;;;;;9.23;4.45;;;25.80;54.50;;;;;;6155227;28;80838;-60
2024/04/08 07:32:46;;;;;;;10.88;4.93;;;25.80;54.30;;;;;;6158555;28;82090;-59
2024/04/08 07:35:47;;;;;;;8.85;4.18;;;25.80;54.40;;;;;;6164631;28;80709;-61
2024/04/08 07:38:48;;;;;;;16.15;4.50;;;25.80;54.30;;;;;;6151470;28;80434;-61
2024/04/08 07:41:48;;;;;;;9.68;4.43;;;25.90;54.10;;;;;;6152732;28;80899;-60
2024/04/08 07:44:49;;;;;;;7.50;4.10;;;25.90;53.90;;;;;;6160395;28;81730;-60
2024/04/08 07:47:49;;;;;;;8.25;3.80;;;25.90;53.40;;;;;;6150714;28;80957;-60
2024/04/08 07:50:52;;;;;;;9.77;3.72;;;25.90;53.30;;;;;;6153151;28;82928;-61
2024/04/08 07:53:52;;;;;;;8.02;3.95;;;25.90;52.90;;;;;;6169037;28;80447;-60
2024/04/08 07:56:53;;;;;;;8.30;3.33;;;25.80;53.50;;;;;;6169183;28;81197;-59
2024/04/08 07:59:53;;;;;;;5.93;3.22;;;25.90;53.00;;;;;;6166370;28;80502;-60
2024/04/08 08:02:54;;;;;;;8.13;3.35;;;25.90;53.20;;;;;;6150663;28;81261;-60
2024/04/08 08:05:54;;;;;;;5.93;3.13;;;25.90;52.80;;;;;;6150777;28;80283;-61
2024/04/08 08:08:55;;;;;;;6.43;3.25;;;25.90;53.10;;;;;;6149599;28;81902;-62
2024/04/08 08:11:55;;;;;;;6.72;3.10;;;25.90;52.40;;;;;;6159458;28;80527;-62
2024/04/08 08:14:56;;;;;;;5.88;3.10;;;25.90;52.20;;;;;;6162824;28;81171;-61
2024/04/08 08:17:56;;;;;;;4.13;2.75;;;26.00;52.30;;;;;;6143893;28;81862;-61
2024/04/08 08:20:57;;;;;;;5.47;2.80;;;26.00;52.50;;;;;;6151553;28;80698;-62
2024/04/08 08:23:58;;;;;;;8.93;3.72;;;26.00;52.50;;;;;;6160388;28;80859;-61
2024/04/08 08:26:58;;;;;;;6.72;2.58;;;26.10;52.20;;;;;;6181547;28;80338;-66
2024/04/08 08:29:59;;;;;;;4.75;2.60;;;26.10;51.90;;;;;;6163027;28;80823;-57
2024/04/08 08:32:59;;;;;;;4.95;2.60;;;26.10;52.10;;;;;;6166787;28;81788;-58
2024/04/08 08:36:00;;;;;;;8.70;3.28;;;26.20;52.80;;;;;;6162921;28;80651;-59
2024/04/08 08:39:00;;;;;;;4.93;2.67;;;26.20;53.20;;;;;;6167482;28;82462;-60
2024/04/08 08:42:01;;;;;;;3.08;2.42;;;26.30;54.00;;;;;;6172622;28;80242;-58
2024/04/08 08:45:01;;;;;;;7.07;2.47;;;26.30;55.10;;;;;;6160672;28;81077;-60
2024/04/08 08:48:02;;;;;;;4.75;2.30;;;26.30;55.30;;;;;;6164606;28;81648;-57
2024/04/08 08:51:04;;;;;;;8.15;2.88;;;26.30;54.90;;;;;;6162866;28;81303;-60
2024/04/08 08:54:05;;;;;;;5.57;2.83;;;26.30;54.60;;;;;;6159333;28;80632;-58
2024/04/08 08:57:05;;;;;;;4.63;2.85;;;26.40;55.40;;;;;;6171597;28;80335;-57
2024/04/08 09:00:06;;;;;;;5.78;2.30;;;26.40;56.20;;;;;;6159870;28;81584;-61
2024/04/08 09:15:04;;;;;;;3.78;2.50;;;26.40;58.40;;;;;;6736427;25;74824;-62
2024/04/08 09:18:05;;;;;;;2.83;2.10;;;26.50;57.80;;;;;;6690792;25;78907;-61
2024/04/08 09:21:05;;;;;;;4.18;1.95;;;26.50;57.70;;;;;;6689093;25;79066;-61
2024/04/08 09:24:06;;;;;;;6.18;2.95;;;26.50;56.30;;;;;;6689809;25;80297;-61
2024/04/08 09:27:06;;;;;;;4.20;2.10;;;26.50;58.80;;;;;;6692721;25;78882;-62
2024/04/08 09:30:07;;;;;;;4.85;2.33;;;26.50;59.10;;;;;;6690272;25;79017;-62
2024/04/08 09:33:07;;;;;;;3.33;2.28;;;26.50;59.50;;;;;;6690226;25;79163;-62
2024/04/08 09:36:08;;;;;;;10.57;2.42;;;26.50;58.70;;;;;;6689753;25;79666;-61
2024/04/08 09:39:08;;;;;;;4.57;2.78;;;26.50;59.90;;;;;;6689099;25;78704;-59
2024/04/08 09:42:09;;;;;;;6.50;2.42;;;26.50;57.50;;;;;;6683235;25;82045;-57
2024/04/08 09:45:09;;;;;;;6.35;2.03;;;26.50;59.30;;;;;;6690718;25;83462;-57
2024/04/08 09:48:10;;;;;;;5.80;2.30;;;26.50;59.30;;;;;;6686308;25;79249;-59
2024/04/08 09:51:11;;;;;;;4.63;2.05;;;26.50;56.60;;;;;;6679479;25;79077;-54
2024/04/08 09:54:11;;;;;;;4.35;2.10;;;26.50;55.50;;;;;;6686763;25;78991;-56
2024/04/08 09:57:12;;;;;;;5.57;2.17;;;26.50;55.50;;;;;;6682896;25;79706;-57
2024/04/08 10:00:12;;;;;;;6.32;2.33;;;26.50;55.10;;;;;;6688481;25;79719;-54
2024/04/08 10:03:13;;;;;;;2.75;1.90;;;26.50;56.40;;;;;;6692492;25;79449;-57
2024/04/08 10:06:13;;;;;;;3.83;2.20;;;26.50;55.30;;;;;;6691190;25;78806;-57
2024/04/08 10:09:14;;;;;;;3.22;1.85;;;26.50;56.30;;;;;;6690797;26;87046;-57
2024/04/08 10:12:14;;;;;;;5.47;2.17;;;26.60;56.40;;;;;;6689331;25;80650;-58
2024/04/08 10:15:14;;;;;;;6.32;1.90;;;26.60;56.20;;;;;;6677043;25;79204;-62
2024/04/08 10:18:15;;;;;;;2.88;1.70;;;26.60;57.20;;;;;;6667479;25;78738;-61
2024/04/08 10:21:15;;;;;;;5.18;1.85;;;26.60;57.00;;;;;;6668761;25;83106;-61
2024/04/08 10:24:16;;;;;;;2.65;1.98;;;26.60;55.30;;;;;;6669200;25;79514;-62
2024/04/08 10:27:16;;;;;;;3.47;2.00;;;26.70;56.90;;;;;;6672930;25;78701;-62
2024/04/08 10:30:17;;;;;;;4.22;1.67;;;26.70;56.90;;;;;;6674264;25;80676;-60
2024/04/08 10:33:18;;;;;;;3.15;2.00;;;26.60;56.10;;;;;;6666843;25;79701;-61
2024/04/08 10:36:18;;;;;;;2.63;1.52;;;26.70;56.30;;;;;;6670549;25;80208;-61
2024/04/08 10:39:26;;;;;;;2.85;2.13;;;26.70;56.40;;;;;;6669803;25;79854;-61
2024/04/08 10:42:28;;;;;;;3.75;2.00;;;26.70;54.60;;;;;;6669840;25;78868;-61
2024/04/08 10:45:28;;;;;;;3.08;1.95;;;26.70;55.40;;;;;;6669205;25;79350;-60
2024/04/08 10:48:29;;;;;;;2.60;1.85;;;26.70;56.50;;;;;;6669170;25;78942;-60
2024/04/08 10:51:29;;;;;;;3.28;2.10;;;26.70;55.20;;;;;;6670257;25;78974;-61
2024/04/08 10:54:31;;;;;;;5.35;1.98;;;26.80;55.00;;;;;;6669574;25;78784;-60
2024/04/08 10:57:31;;;;;;;7.15;2.35;;;26.70;55.20;;;;;;6670035;25;79129;-61
2024/04/08 11:00:32;;;;;;;5.20;2.00;;;26.80;53.60;;;;;;6667457;25;79015;-61
2024/04/08 11:03:32;;;;;;;6.38;2.28;;;26.80;51.60;;;;;;6671058;25;80057;-61
2024/04/08 11:06:33;;;;;;;3.72;2.20;;;26.80;51.00;;;;;;6668573;25;81035;-64
2024/04/08 11:09:33;;;;;;;4.25;2.00;;;26.80;51.80;;;;;;6659703;25;81774;-58
2024/04/08 11:12:34;;;;;;;6.25;2.10;;;26.80;53.00;;;;;;6667801;25;83267;-59
2024/04/08 11:15:34;;;;;;;5.57;1.60;;;26.80;53.00;;;;;;6669143;25;79515;-60
2024/04/08 11:18:35;;;;;;;4.45;2.20;;;26.80;53.00;;;;;;6663443;25;78839;-58
2024/04/08 11:21:35;;;;;;;6.32;2.08;;;26.80;53.90;;;;;;6669256;25;78926;-58
2024/04/08 11:24:36;;;;;;;6.93;1.73;;;26.90;52.90;;;;;;6667679;25;79169;-58
2024/04/08 11:27:38;;;;;;;6.95;2.05;;;26.90;53.10;;;;;;6668105;25;80427;-58
2024/04/08 11:30:38;;;;;;;5.00;1.73;;;26.90;53.60;;;;;;6668058;25;78939;-58
2024/04/08 11:33:39;;;;;;;3.95;1.70;;;26.90;53.00;;;;;;6665927;25;79852;-59
2024/04/08 11:36:39;;;;;;;4.60;1.77;;;26.90;53.10;;;;;;6668886;25;78926;-58
2024/04/08 11:39:40;;;;;;;3.20;1.75;;;26.90;52.80;;;;;;6668842;25;80649;-58
2024/04/08 11:42:41;;;;;;;2.30;1.30;;;26.80;54.00;;;;;;6668340;25;79444;-59
2024/04/08 11:45:41;;;;;;;7.95;2.10;;;26.90;53.60;;;;;;6668494;25;80597;-59
2024/04/08 11:48:45;;;;;;;2.78;1.73;;;26.90;53.30;;;;;;6668161;25;78825;-60
2024/04/08 11:51:45;;;;;;;4.35;1.85;;;26.80;53.40;;;;;;6667237;25;79527;-59
2024/04/08 11:54:46;;;;;;;4.88;2.20;;;26.90;53.90;;;;;;6669014;25;79027;-59
2024/04/08 11:57:46;;;;;;;6.07;1.73;;;26.80;54.10;;;;;;6665671;25;79236;-58
2024/04/08 12:00:47;;;;;;;4.75;2.08;;;26.80;52.00;;;;;;6668441;25;79499;-59
2024/04/08 12:03:47;;;;;;;4.93;1.90;;;26.80;51.80;;;;;;6666894;25;80918;-57
2024/04/08 12:06:48;;;;;;;7.50;1.83;;;26.80;52.10;;;;;;6664004;25;79037;-52
2024/04/08 12:09:48;;;;;;;3.05;1.75;;;26.80;50.70;;;;;;6669100;25;78860;-49
2024/04/08 12:12:49;;;;;;;3.88;1.77;;;26.90;51.70;;;;;;6662092;25;80271;-50
2024/04/08 12:15:50;;;;;;;6.38;1.60;;;26.80;52.80;;;;;;6665233;25;81011;-50
2024/04/08 12:18:50;;;;;;;5.13;1.50;;;26.80;53.80;;;;;;6657507;25;78958;-52
2024/04/08 12:21:51;;;;;;;4.55;1.70;;;26.80;53.90;;;;;;6664680;25;83000;-51
2024/04/08 12:24:51;;;;;;;5.45;2.00;;;26.80;53.90;;;;;;6660977;25;78775;-54
2024/04/08 12:27:52;;;;;;;10.07;1.70;;;26.80;54.20;;;;;;6663528;25;80277;-52
2024/04/08 12:30:53;;;;;;;3.03;1.95;;;26.90;54.10;;;;;;6668295;25;79038;-51
2024/04/08 12:33:54;;;;;;;3.63;1.90;;;26.90;53.90;;;;;;6711732;25;80243;-49
2024/04/08 12:36:54;;;;;;;6.40;2.28;;;26.80;55.00;;;;;;6703560;25;79196;-54
2024/04/08 12:39:55;;;;;;;3.13;2.05;;;26.80;53.70;;;;;;6712207;25;78987;-50
2024/04/08 12:42:55;;;;;;;4.97;1.88;;;26.90;53.80;;;;;;6711866;25;78826;-58
2024/04/08 12:45:55;;;;;;;4.30;1.83;;;26.90;54.20;;;;;;6696191;25;78994;-58
2024/04/08 12:48:56;;;;;;;5.30;2.03;;;26.90;54.40;;;;;;6711588;25;78939;-58
2024/04/08 12:51:57;;;;;;;5.70;2.78;;;26.80;54.10;;;;;;6711066;25;78710;-59
2024/04/08 12:54:57;;;;;;;5.68;2.30;;;26.90;53.70;;;;;;6712026;25;78869;-59
2024/04/08 12:58:00;;;;;;;3.45;1.90;;;26.90;53.80;;;;;;6706350;25;79407;-58
2024/04/08 13:01:00;;;;;;;4.25;1.92;;;26.90;54.00;;;;;;6708411;25;83263;-55
2024/04/08 13:04:01;;;;;;;3.67;2.10;;;26.90;53.90;;;;;;6697081;25;79109;-54
2024/04/08 13:07:02;;;;;;;11.75;2.33;;;26.90;53.90;;;;;;6702282;25;79408;-56
2024/04/08 13:10:02;;;;;;;2.95;1.60;;;26.90;53.10;;;;;;6700473;25;79241;-58
2024/04/08 13:13:03;;;;;;;4.35;1.80;;;26.90;53.90;;;;;;6709110;25;78901;-55
2024/04/08 13:16:03;;;;;;;4.63;1.63;;;26.90;53.00;;;;;;6700535;25;80456;-57
2024/04/08 13:19:04;;;;;;;6.15;1.90;;;26.90;53.40;;;;;;6700480;25;84147;-67
2024/04/08 13:22:04;;;;;;;4.53;1.85;;;26.90;53.40;;;;;;6704255;25;79045;-68
2024/04/08 13:25:05;;;;;;;11.23;2.47;;;26.90;53.30;;;;;;6712358;25;80099;-68
2024/04/08 13:28:05;;;;;;;3.28;2.08;;;27.00;52.10;;;;;;6712260;25;84382;-66
2024/04/08 13:31:06;;;;;;;3.80;1.50;;;27.00;53.20;;;;;;6710076;25;79024;-66
2024/04/08 13:34:06;;;;;;;5.40;1.85;;;27.00;53.20;;;;;;6711079;25;78693;-67
2024/04/08 13:37:07;;;;;;;3.85;1.95;;;27.00;52.70;;;;;;6710759;25;79220;-57
2024/04/08 13:40:07;;;;;;;2.55;1.75;;;27.00;52.60;;;;;;6695566;25;80452;-53
2024/04/08 13:43:08;;;;;;;3.78;1.90;;;27.00;51.50;;;;;;6687280;25;79158;-54
2024/04/08 13:46:08;;;;;;;6.13;1.55;;;27.00;52.20;;;;;;6691376;25;79072;-50
2024/04/08 13:49:09;;;;;;;2.78;1.95;;;27.00;52.30;;;;;;6707465;25;80296;-52
2024/04/08 13:52:10;;;;;;;5.82;1.70;;;27.00;52.10;;;;;;6689221;25;82350;-56
2024/04/08 13:55:10;;;;;;;5.03;2.05;;;27.00;53.10;;;;;;6701004;25;79869;-59
2024/04/08 13:58:11;;;;;;;4.97;2.30;;;27.00;53.20;;;;;;6701135;25;79414;-62
2024/04/08 14:01:11;;;;;;;32.17;2.78;;;27.00;53.60;;;;;;6710719;25;78764;-60
2024/04/08 14:04:12;;;;;;;5.25;1.95;;;27.00;54.10;;;;;;6715668;25;79160;-60
2024/04/08 14:07:12;;;;;;;5.88;1.95;;;27.00;54.10;;;;;;6713897;25;78630;-60
2024/04/08 14:10:13;;;;;;;2.63;1.75;;;27.00;54.00;;;;;;6713098;25;79057;-58
2024/04/08 14:13:14;;;;;;;10.77;2.00;;;27.00;53.70;;;;;;6703394;25;79010;-63
2024/04/08 14:16:14;;;;;;;3.63;1.65;;;27.00;53.60;;;;;;6714675;25;79522;-64
2024/04/08 14:19:15;;;;;;;7.25;2.00;;;27.10;53.40;;;;;;6718398;25;79192;-62
2024/04/08 14:22:15;;;;;;;3.45;2.00;;;27.10;53.30;;;;;;6714078;25;78714;-61
2024/04/08 14:25:16;;;;;;;5.97;1.60;;;27.10;53.40;;;;;;6713715;25;79382;-62
2024/04/08 14:28:16;;;;;;;6.30;2.35;;;27.10;53.40;;;;;;6713384;25;79139;-63
2024/04/08 14:31:17;;;;;;;3.05;1.50;;;27.20;53.10;;;;;;6703236;25;84227;-60
2024/04/08 14:34:18;;;;;;;5.55;2.17;;;27.10;53.10;;;;;;6707291;25;78895;-60
2024/04/08 14:37:19;;;;;;;2.22;2.00;;;27.20;53.10;;;;;;6707252;25;78724;-59
2024/04/08 14:40:21;;;;;;;6.28;2.15;;;27.20;52.80;;;;;;6715341;25;79423;-60
2024/04/08 14:43:21;;;;;;;5.15;1.83;;;27.20;52.90;;;;;;6711628;25;78723;-60
2024/04/08 14:46:22;;;;;;;5.88;1.77;;;27.20;53.00;;;;;;6712988;25;79369;-59
2024/04/08 14:49:22;;;;;;;4.38;1.60;;;27.20;52.40;;;;;;6716306;25;80325;-62
2024/04/08 14:52:23;;;;;;;5.53;1.98;;;27.20;51.60;;;;;;6696639;25;85287;-63
2024/04/08 14:55:23;;;;;;;5.07;1.60;;;27.20;51.40;;;;;;6714454;25;82027;-62
2024/04/08 14:58:24;;;;;;;2.38;1.42;;;27.20;50.80;;;;;;6715650;25;78782;-63
2024/04/08 15:01:25;;;;;;;3.65;1.27;;;27.20;51.50;;;;;;6706640;25;79514;-62
2024/04/08 15:04:25;;;;;;;3.78;1.75;;;27.20;50.50;;;;;;6710716;25;79503;-61
2024/04/08 15:07:27;;;;;;;2.17;1.70;;;27.20;50.70;;;;;;6695397;25;79603;-61
2024/04/08 15:10:27;;;;;;;2.60;1.55;;;27.20;50.60;;;;;;6710892;25;79182;-62
2024/04/08 15:13:28;;;;;;;2.95;1.45;;;27.20;50.50;;;;;;6709683;25;80703;-60
2024/04/08 15:16:28;;;;;;;4.55;1.73;;;27.20;50.80;;;;;;6713491;25;79122;-59
2024/04/08 15:19:29;;;;;;;8.00;1.75;;;27.20;49.20;;;;;;6712131;25;78783;-60
2024/04/08 15:22:29;;;;;;;9.73;2.03;;;27.20;46.80;;;;;;6699275;25;79588;-62
2024/04/08 15:25:30;;;;;;;4.13;1.50;;;27.30;45.50;;;;;;6715536;25;79232;-59
2024/04/08 15:28:30;;;;;;;8.05;2.10;;;27.30;45.10;;;;;;6708564;25;79092;-62
2024/04/08 15:31:31;;;;;;;5.32;1.70;;;27.30;44.70;;;;;;6708949;25;79438;-61
2024/04/08 15:34:31;;;;;;;4.78;1.63;;;27.20;45.30;;;;;;6711490;25;79107;-61
2024/04/08 15:37:32;;;;;;;3.72;1.50;;;27.30;45.40;;;;;;6712341;25;79163;-60
2024/04/08 15:40:32;;;;;;;5.03;1.52;;;27.30;44.30;;;;;;6713656;25;78910;-61
2024/04/08 15:43:33;;;;;;;3.75;1.52;;;27.30;43.90;;;;;;6716807;25;79691;-59
2024/04/08 15:46:33;;;;;;;5.07;1.58;;;27.40;42.20;;;;;;6714406;25;81710;-59
2024/04/08 15:49:34;;;;;;;4.72;1.80;;;27.40;41.70;;;;;;6709054;25;79339;-61